createdAt,value
2023-05-23T00:00:08.890Z,1.8
2023-05-23T00:05:08.961Z,1.8
2023-05-23T00:10:07.984Z,2.4
2023-05-23T00:15:09.159Z,2.4
2023-05-23T00:20:08.155Z,0.0
2023-05-23T00:25:08.136Z,0.0
2023-05-23T00:30:08.121Z,1.3
2023-05-23T00:35:08.118Z,1.3
2023-05-23T00:40:08.078Z,2.6
2023-05-23T00:45:08.044Z,2.6
2023-05-23T00:50:08.070Z,1.7
2023-05-23T00:55:08.123Z,1.7
2023-05-23T01:00:08.139Z,1.5
2023-05-23T01:05:08.340Z,1.5
2023-05-23T01:10:08.323Z,2.0
2023-05-23T01:15:08.446Z,2.0
2023-05-23T01:20:18.476Z,1.4
2023-05-23T01:25:08.478Z,1.4
2023-05-23T01:30:08.471Z,1.7
2023-05-23T01:35:08.568Z,1.7
2023-05-23T01:40:08.542Z,3.7
2023-05-23T01:45:08.545Z,3.7
2023-05-23T01:50:08.557Z,3.2
2023-05-23T01:55:08.527Z,3.2
2023-05-23T02:00:08.680Z,3.0
2023-05-23T02:05:08.689Z,3.0
2023-05-23T02:10:08.714Z,1.7
2023-05-23T02:15:08.725Z,1.7
2023-05-23T02:20:08.734Z,2.3
2023-05-23T02:25:08.774Z,2.3
2023-05-23T02:30:08.808Z,3.4
2023-05-23T02:35:08.817Z,3.4
2023-05-23T02:40:08.811Z,2.1
2023-05-23T02:45:08.789Z,2.1
2023-05-23T02:50:08.830Z,1.6
2023-05-23T02:55:08.830Z,1.6
2023-05-23T03:00:08.852Z,2.9
2023-05-23T03:05:08.841Z,2.9
2023-05-23T03:10:08.860Z,1.8
2023-05-23T03:15:08.850Z,1.8
2023-05-23T03:20:08.838Z,1.6
2023-05-23T03:25:08.790Z,3.8
2023-05-23T03:30:08.746Z,3.8
2023-05-23T03:35:08.708Z,2.1
2023-05-23T03:40:08.699Z,2.1
2023-05-23T03:45:08.669Z,2.1
2023-05-23T03:50:08.653Z,2.6
2023-05-23T03:55:08.626Z,2.1
2023-05-23T04:00:08.595Z,1.3
2023-05-23T04:05:02.729Z,1.3
2023-05-23T04:10:02.865Z,1.4
2023-05-23T04:15:02.925Z,1.4
2023-05-23T04:20:02.930Z,3.2
2023-05-23T04:25:02.977Z,3.2
2023-05-23T04:30:02.002Z,2.4
2023-05-23T04:35:02.087Z,2.4
2023-05-23T04:40:02.315Z,2.8
2023-05-23T04:45:02.430Z,2.8
2023-05-23T04:50:02.537Z,1.7
2023-05-23T04:55:02.609Z,1.7
2023-05-23T05:00:03.074Z,2.3
2023-05-23T05:05:02.154Z,2.2
2023-05-23T05:10:02.369Z,2.2
2023-05-23T05:15:02.441Z,2.1
2023-05-23T05:20:02.570Z,1.6
2023-05-23T05:25:02.792Z,1.6
2023-05-23T05:30:06.808Z,2.1
2023-05-23T05:35:02.869Z,2.1
2023-05-23T05:40:03.102Z,1.3
2023-05-23T05:45:02.242Z,1.3
2023-05-23T05:50:02.401Z,1.3
2023-05-23T05:55:02.543Z,1.2
2023-05-23T06:00:02.673Z,2.3
2023-05-23T06:05:03.077Z,2.3
2023-05-23T06:10:02.279Z,2.4
2023-05-23T06:15:02.584Z,2.4
2023-05-23T06:20:02.733Z,1.5
2023-05-23T06:25:02.967Z,1.5
2023-05-23T06:30:02.107Z,1.1
2023-05-23T06:35:02.665Z,1.1
2023-05-23T06:40:03.158Z,2.9
2023-05-23T06:45:02.142Z,2.9
2023-05-23T06:50:02.205Z,1.8
2023-05-23T06:55:02.212Z,1.8
2023-05-23T07:00:02.690Z,2.0
2023-05-23T07:05:02.715Z,2.0
2023-05-23T07:10:02.862Z,2.2
2023-05-23T07:15:03.017Z,2.2
2023-05-23T07:20:02.099Z,1.5
2023-05-23T07:25:02.170Z,1.5
2023-05-23T07:30:02.187Z,3.1
2023-05-23T07:35:02.251Z,3.1
2023-05-23T07:40:02.366Z,0.0
2023-05-23T07:45:02.477Z,0.0
2023-05-23T07:50:02.635Z,1.8
2023-05-23T07:55:02.684Z,1.8
2023-05-23T08:00:02.830Z,1.7
2023-05-23T08:05:02.987Z,1.7
2023-05-23T08:10:02.056Z,1.8
2023-05-23T08:15:02.246Z,1.8
2023-05-23T08:20:02.449Z,2.3
2023-05-23T08:25:02.633Z,2.3
2023-05-23T08:30:02.857Z,2.5
2023-05-23T08:35:03.151Z,2.5
2023-05-23T08:40:02.381Z,2.5
2023-05-23T08:45:02.639Z,2.5
2023-05-23T08:50:02.779Z,1.7
2023-05-23T08:55:02.970Z,1.9
2023-05-23T09:00:02.783Z,1.9
2023-05-23T09:05:02.363Z,1.6
2023-05-23T09:10:02.555Z,1.6
2023-05-23T09:15:02.703Z,1.7
2023-05-23T09:20:02.773Z,2.3
2023-05-23T09:25:02.899Z,2.3
2023-05-23T09:30:03.094Z,2.1
2023-05-23T09:35:02.256Z,2.1
2023-05-23T09:40:02.574Z,3.2
2023-05-23T09:45:04.734Z,3.2
2023-05-23T09:50:02.224Z,2.7
2023-05-23T09:55:02.318Z,2.7
2023-05-23T10:00:02.365Z,2.0
2023-05-23T10:05:02.898Z,2.0
2023-05-23T10:10:02.987Z,2.0
2023-05-23T10:15:02.095Z,2.0
2023-05-23T10:20:10.040Z,1.7
2023-05-23T10:25:04.837Z,1.7
2023-05-23T10:30:02.920Z,2.2
2023-05-23T10:35:03.080Z,2.2
2023-05-23T10:40:02.194Z,1.5
2023-05-23T10:45:02.431Z,1.5
2023-05-23T10:50:02.660Z,3.1
2023-05-23T10:55:02.902Z,3.1
2023-05-23T11:00:03.129Z,1.0
2023-05-23T11:05:02.208Z,1.0
2023-05-23T11:10:02.407Z,2.3
2023-05-23T11:15:02.641Z,2.3
2023-05-23T11:20:02.759Z,1.8
2023-05-23T11:25:02.896Z,1.8
2023-05-23T11:30:03.147Z,2.0
2023-05-23T11:35:02.237Z,2.0
2023-05-23T11:40:12.571Z,1.7
2023-05-23T11:45:02.853Z,1.7
2023-05-23T11:50:02.961Z,1.5
2023-05-23T11:55:03.918Z,1.5
2023-05-23T12:00:02.433Z,2.1
2023-05-23T12:05:02.629Z,2.1
2023-05-23T12:10:02.921Z,1.3
2023-05-23T12:15:03.039Z,1.3
2023-05-23T12:20:02.217Z,2.9
2023-05-23T12:25:03.009Z,2.9
2023-05-23T12:30:02.068Z,1.5
2023-05-23T12:35:02.192Z,1.9
2023-05-23T12:40:02.333Z,1.5
2023-05-23T12:45:02.392Z,1.5
2023-05-23T12:50:02.577Z,1.5
2023-05-23T12:55:02.781Z,1.5
2023-05-23T13:00:02.877Z,2.1
2023-05-23T13:05:03.137Z,2.1
2023-05-23T13:10:02.368Z,1.9
2023-05-23T13:15:02.573Z,2.6
2023-05-23T13:20:02.715Z,1.4
2023-05-23T13:25:02.944Z,2.1
2023-05-23T13:30:01.976Z,2.1
2023-05-23T13:35:02.308Z,2.1
2023-05-23T13:40:02.462Z,1.4
2023-05-23T13:45:02.585Z,1.1
2023-05-23T13:50:02.738Z,1.1
2023-05-23T13:55:02.865Z,2.6
2023-05-23T14:00:03.021Z,1.8
2023-05-23T14:05:02.307Z,2.2
2023-05-23T14:10:02.510Z,2.9
2023-05-23T14:15:02.620Z,2.9
2023-05-23T14:20:02.810Z,1.8
2023-05-23T14:25:03.084Z,2.0
2023-05-23T14:30:02.303Z,1.6
2023-05-23T14:35:02.569Z,2.5
2023-05-23T14:40:02.695Z,2.4
2023-05-23T14:45:02.857Z,2.4
2023-05-23T14:50:03.000Z,2.4
2023-05-23T14:55:02.176Z,1.7
2023-05-23T15:00:02.617Z,1.7
2023-05-23T15:05:02.912Z,1.4
2023-05-23T15:10:03.115Z,1.4
2023-05-23T15:15:02.347Z,1.9
2023-05-23T15:20:03.928Z,1.9
2023-05-23T15:25:02.215Z,2.2
2023-05-23T15:30:02.526Z,2.2
2023-05-23T15:35:02.782Z,1.7
2023-05-23T15:40:03.048Z,1.5
2023-05-23T15:45:02.184Z,2.7
2023-05-23T15:50:02.261Z,2.7
2023-05-23T15:55:02.301Z,1.7
2023-05-23T16:00:02.547Z,2.3
2023-05-23T16:05:02.674Z,2.3
2023-05-23T16:10:02.740Z,2.5
2023-05-23T16:15:02.790Z,2.5
2023-05-23T16:20:02.898Z,3.5
2023-05-23T16:25:02.949Z,3.5
2023-05-23T16:30:02.053Z,2.0
2023-05-23T16:35:02.183Z,2.0
2023-05-23T16:40:02.319Z,2.4
2023-05-23T16:45:02.414Z,2.4
2023-05-23T16:50:02.606Z,2.8
2023-05-23T16:55:02.749Z,2.8
2023-05-23T17:00:02.926Z,2.5
2023-05-23T17:05:03.533Z,2.5
2023-05-23T17:10:02.709Z,2.0
2023-05-23T17:15:02.816Z,2.0
2023-05-23T17:20:03.071Z,1.3
2023-05-23T17:25:02.120Z,1.3
2023-05-23T17:30:02.618Z,1.4
2023-05-23T17:35:02.832Z,1.4
2023-05-23T17:40:03.018Z,1.9
2023-05-23T17:45:02.186Z,1.9
2023-05-23T17:50:02.333Z,1.6
2023-05-23T17:55:02.469Z,1.6
2023-05-23T18:00:02.581Z,2.4
2023-05-23T18:05:02.823Z,2.4
2023-05-23T18:10:02.949Z,1.2
2023-05-23T18:15:02.083Z,1.2
2023-05-23T18:20:02.846Z,2.1
2023-05-23T18:25:02.035Z,2.1
2023-05-23T18:30:02.152Z,1.2
2023-05-23T18:35:02.312Z,1.2
2023-05-23T18:40:02.434Z,1.9
2023-05-23T18:45:02.541Z,1.9
2023-05-23T18:50:02.652Z,1.9
2023-05-23T18:55:02.772Z,1.9
2023-05-23T19:00:02.877Z,1.4
2023-05-23T19:05:02.988Z,1.4
2023-05-23T19:10:02.092Z,1.2
2023-05-23T19:15:02.121Z,1.2
2023-05-23T19:20:02.235Z,2.9
2023-05-23T19:25:02.303Z,2.9
2023-05-23T19:30:02.468Z,1.1
2023-05-23T19:35:02.710Z,1.1
2023-05-23T19:40:02.950Z,1.6
2023-05-23T19:45:02.050Z,1.6
2023-05-23T19:50:02.196Z,2.9
2023-05-23T19:55:03.609Z,2.0
2023-05-23T20:00:02.962Z,1.1
2023-05-23T20:05:02.153Z,1.1
2023-05-23T20:10:02.315Z,0.0
2023-05-23T20:15:02.459Z,0.0
2023-05-23T20:20:02.740Z,1.2
2023-05-23T20:25:02.881Z,1.2
2023-05-23T20:30:03.004Z,0.0
2023-05-23T20:35:02.098Z,0.0
2023-05-23T20:40:02.170Z,0.0
2023-05-23T20:45:02.445Z,0.0
2023-05-23T20:50:02.617Z,0.0
2023-05-23T20:55:02.862Z,0.0
2023-05-23T21:00:03.004Z,0.0
2023-05-23T21:05:08.070Z,0.0
2023-05-23T21:10:08.094Z,1.1
2023-05-23T21:15:08.075Z,1.1
2023-05-23T21:20:08.080Z,0.0
2023-05-23T21:25:08.032Z,0.0
2023-05-23T21:30:08.037Z,0.0
2023-05-23T21:35:08.068Z,0.0
2023-05-23T21:40:08.151Z,0.0
2023-05-23T21:45:08.135Z,0.0
2023-05-23T21:50:08.113Z,0.0
2023-05-23T21:55:08.094Z,0.0
2023-05-23T22:00:08.153Z,0.0
2023-05-23T22:05:08.154Z,0.0
2023-05-23T22:10:08.182Z,0.0
2023-05-23T22:15:08.178Z,0.0
2023-05-23T22:20:08.211Z,0.0
2023-05-23T22:25:08.207Z,0.0
2023-05-23T22:30:08.181Z,0.0
2023-05-23T22:35:08.290Z,0.0
2023-05-23T22:40:08.261Z,0.0
2023-05-23T22:45:08.298Z,0.0
2023-05-23T22:50:08.286Z,0.0
2023-05-23T22:55:08.713Z,0.0
2023-05-23T23:01:16.249Z,0.0
2023-05-23T23:05:08.326Z,0.0
2023-05-23T23:10:08.714Z,0.0
2023-05-23T23:15:08.751Z,0.0
2023-05-23T23:20:08.775Z,0.0
2023-05-23T23:25:08.797Z,0.0
2023-05-23T23:30:08.772Z,0.0
2023-05-23T23:35:08.752Z,0.0
2023-05-23T23:40:08.787Z,0.0
2023-05-23T23:45:08.818Z,0.0
2023-05-23T23:50:08.822Z,0.0
2023-05-23T23:55:08.866Z,0.0
